Archival Weather

Downtown Manhattan/Wall St

New York, Downtown Manhattan/Wall St (KJRB)

Report from: Friday, February 23, 2024 3:56 PM EST
Current time: Wednesday, May 29, 2024 8:33 PM EDT

Current weather – Weather history – Daily summaries
Weather forecast

Temperature7.8°C (46.0°F)
Dew point3.9°C (39.0°F)
Winds Calm
Visibility10 mi. (16.1 km)
Clouds Ceiling: Broken clouds 7,000 ft. (2,134 m)
Overcast 8,000 ft. (2,438 m)
Altimeter29.46 in.Hg (998 mB)
Relative humidity76 %
Density altitude-207 ft. (-63 m)
Sea-level pressure99.8 kPa (998 mB, 29.46 in.Hg)
Remarks Fully automated report
System requires maintenance
Automated weather observing station with precipitation discriminator
Precipitation sensor not operating
Pressure falling, then rising
Flight conditions Visual Meteorological Conditions
Raw dataKJRB 232056Z AUTO 00000KT 10SM BKN070 OVC080 08/04 A2946 RMK AO2 SLP975 6//// T00780039 55009 PNO $
An error has occurred. This application may no longer respond until reloaded. Reload 🗙